sensor_id;sensor_type;location;lat;lon;timestamp;P1;durP1;ratioP1;P2;durP2;ratioP2
5379;SDS011;2713;42.680;23.310;2023-02-11T00:02:20;15.10;;;9.63;;
5379;SDS011;2713;42.680;23.310;2023-02-11T00:04:48;13.80;;;9.50;;
5379;SDS011;2713;42.680;23.310;2023-02-11T00:07:14;14.00;;;9.27;;
5379;SDS011;2713;42.680;23.310;2023-02-11T00:09:42;14.57;;;9.38;;
5379;SDS011;2713;42.680;23.310;2023-02-11T00:12:09;13.32;;;9.40;;
5379;SDS011;2713;42.680;23.310;2023-02-11T00:14:36;14.05;;;9.27;;
5379;SDS011;2713;42.680;23.310;2023-02-11T00:17:03;12.98;;;9.45;;
5379;SDS011;2713;42.680;23.310;2023-02-11T00:19:29;16.50;;;10.25;;
5379;SDS011;2713;42.680;23.310;2023-02-11T00:21:56;16.38;;;10.48;;
5379;SDS011;2713;42.680;23.310;2023-02-11T00:24:23;14.18;;;9.80;;
5379;SDS011;2713;42.680;23.310;2023-02-11T00:26:51;17.08;;;11.02;;
5379;SDS011;2713;42.680;23.310;2023-02-11T00:29:18;19.65;;;11.93;;
5379;SDS011;2713;42.680;23.310;2023-02-11T00:31:45;17.48;;;11.35;;
5379;SDS011;2713;42.680;23.310;2023-02-11T00:34:12;16.67;;;11.52;;
5379;SDS011;2713;42.680;23.310;2023-02-11T00:36:38;14.80;;;10.20;;
5379;SDS011;2713;42.680;23.310;2023-02-11T00:39:06;16.83;;;10.68;;
5379;SDS011;2713;42.680;23.310;2023-02-11T00:41:34;14.52;;;10.13;;
5379;SDS011;2713;42.680;23.310;2023-02-11T00:44:02;15.20;;;9.57;;
5379;SDS011;2713;42.680;23.310;2023-02-11T00:46:29;13.18;;;9.68;;
5379;SDS011;2713;42.680;23.310;2023-02-11T00:48:56;15.38;;;9.60;;
5379;SDS011;2713;42.680;23.310;2023-02-11T00:51:23;13.05;;;9.60;;
5379;SDS011;2713;42.680;23.310;2023-02-11T00:53:50;16.50;;;10.75;;
5379;SDS011;2713;42.680;23.310;2023-02-11T00:56:17;20.05;;;9.65;;
5379;SDS011;2713;42.680;23.310;2023-02-11T00:58:45;17.20;;;10.25;;
5379;SDS011;2713;42.680;23.310;2023-02-11T01:01:13;15.35;;;10.38;;
5379;SDS011;2713;42.680;23.310;2023-02-11T01:03:41;15.65;;;9.40;;
5379;SDS011;2713;42.680;23.310;2023-02-11T01:06:08;13.48;;;9.57;;
5379;SDS011;2713;42.680;23.310;2023-02-11T01:08:36;13.15;;;9.70;;
5379;SDS011;2713;42.680;23.310;2023-02-11T01:11:04;18.15;;;10.50;;
5379;SDS011;2713;42.680;23.310;2023-02-11T01:13:33;16.55;;;10.20;;
5379;SDS011;2713;42.680;23.310;2023-02-11T01:16:03;12.98;;;9.60;;
5379;SDS011;2713;42.680;23.310;2023-02-11T01:18:34;13.35;;;9.65;;
5379;SDS011;2713;42.680;23.310;2023-02-11T01:21:01;15.35;;;9.57;;
5379;SDS011;2713;42.680;23.310;2023-02-11T01:23:28;14.13;;;9.80;;
5379;SDS011;2713;42.680;23.310;2023-02-11T01:25:55;16.23;;;9.52;;
5379;SDS011;2713;42.680;23.310;2023-02-11T01:28:23;16.30;;;9.48;;
5379;SDS011;2713;42.680;23.310;2023-02-11T01:30:52;15.20;;;9.55;;
5379;SDS011;2713;42.680;23.310;2023-02-11T01:33:19;14.32;;;10.60;;
5379;SDS011;2713;42.680;23.310;2023-02-11T01:35:48;16.20;;;9.85;;
5379;SDS011;2713;42.680;23.310;2023-02-11T01:38:16;19.13;;;10.18;;
5379;SDS011;2713;42.680;23.310;2023-02-11T01:40:47;16.08;;;9.88;;
5379;SDS011;2713;42.680;23.310;2023-02-11T01:43:14;14.80;;;10.38;;
5379;SDS011;2713;42.680;23.310;2023-02-11T01:48:31;15.40;;;10.13;;
5379;SDS011;2713;42.680;23.310;2023-02-11T01:51:03;18.63;;;9.73;;
5379;SDS011;2713;42.680;23.310;2023-02-11T01:53:34;13.55;;;9.13;;
5379;SDS011;2713;42.680;23.310;2023-02-11T01:56:22;15.35;;;9.75;;
5379;SDS011;2713;42.680;23.310;2023-02-11T01:59:10;16.40;;;10.40;;
5379;SDS011;2713;42.680;23.310;2023-02-11T02:01:42;14.20;;;9.55;;
5379;SDS011;2713;42.680;23.310;2023-02-11T02:04:16;14.57;;;9.10;;
5379;SDS011;2713;42.680;23.310;2023-02-11T02:06:47;15.75;;;11.23;;
5379;SDS011;2713;42.680;23.310;2023-02-11T02:09:16;11.98;;;8.75;;
5379;SDS011;2713;42.680;23.310;2023-02-11T02:11:47;15.13;;;10.02;;
5379;SDS011;2713;42.680;23.310;2023-02-11T02:14:14;15.18;;;10.00;;
5379;SDS011;2713;42.680;23.310;2023-02-11T02:16:41;14.35;;;9.45;;
5379;SDS011;2713;42.680;23.310;2023-02-11T02:19:13;13.75;;;9.65;;
5379;SDS011;2713;42.680;23.310;2023-02-11T02:25:04;17.73;;;10.93;;
5379;SDS011;2713;42.680;23.310;2023-02-11T02:27:54;16.25;;;10.60;;
5379;SDS011;2713;42.680;23.310;2023-02-11T02:30:38;12.27;;;9.90;;
5379;SDS011;2713;42.680;23.310;2023-02-11T02:33:33;19.08;;;10.90;;
5379;SDS011;2713;42.680;23.310;2023-02-11T02:36:12;17.83;;;10.52;;
5379;SDS011;2713;42.680;23.310;2023-02-11T02:38:46;14.32;;;9.68;;
5379;SDS011;2713;42.680;23.310;2023-02-11T02:41:18;13.60;;;9.80;;
5379;SDS011;2713;42.680;23.310;2023-02-11T02:43:48;13.45;;;9.07;;
5379;SDS011;2713;42.680;23.310;2023-02-11T02:46:17;13.82;;;8.73;;
5379;SDS011;2713;42.680;23.310;2023-02-11T02:48:47;15.68;;;9.55;;
5379;SDS011;2713;42.680;23.310;2023-02-11T02:51:24;17.27;;;9.85;;
5379;SDS011;2713;42.680;23.310;2023-02-11T02:54:18;12.93;;;9.40;;
5379;SDS011;2713;42.680;23.310;2023-02-11T02:57:03;14.05;;;9.50;;
5379;SDS011;2713;42.680;23.310;2023-02-11T02:59:46;12.52;;;9.10;;
5379;SDS011;2713;42.680;23.310;2023-02-11T03:02:29;12.40;;;8.43;;
5379;SDS011;2713;42.680;23.310;2023-02-11T03:05:02;14.52;;;8.93;;
5379;SDS011;2713;42.680;23.310;2023-02-11T03:07:36;15.20;;;9.15;;
5379;SDS011;2713;42.680;23.310;2023-02-11T03:10:10;13.25;;;9.73;;
5379;SDS011;2713;42.680;23.310;2023-02-11T03:12:41;17.80;;;9.73;;
5379;SDS011;2713;42.680;23.310;2023-02-11T03:15:11;12.68;;;8.80;;
5379;SDS011;2713;42.680;23.310;2023-02-11T03:17:39;15.95;;;9.95;;
5379;SDS011;2713;42.680;23.310;2023-02-11T03:20:12;17.80;;;9.75;;
5379;SDS011;2713;42.680;23.310;2023-02-11T03:22:42;12.35;;;9.18;;
5379;SDS011;2713;42.680;23.310;2023-02-11T03:25:13;16.02;;;9.95;;
5379;SDS011;2713;42.680;23.310;2023-02-11T03:27:42;15.82;;;9.77;;
5379;SDS011;2713;42.680;23.310;2023-02-11T03:30:13;12.02;;;9.38;;
5379;SDS011;2713;42.680;23.310;2023-02-11T03:32:45;14.27;;;9.75;;
5379;SDS011;2713;42.680;23.310;2023-02-11T03:35:18;14.75;;;9.00;;
5379;SDS011;2713;42.680;23.310;2023-02-11T03:37:49;15.05;;;9.57;;
5379;SDS011;2713;42.680;23.310;2023-02-11T03:40:18;14.38;;;9.13;;
5379;SDS011;2713;42.680;23.310;2023-02-11T03:42:47;16.00;;;9.90;;
5379;SDS011;2713;42.680;23.310;2023-02-11T03:45:18;12.25;;;9.32;;
5379;SDS011;2713;42.680;23.310;2023-02-11T03:47:48;14.77;;;9.68;;
5379;SDS011;2713;42.680;23.310;2023-02-11T03:50:21;12.30;;;9.20;;
5379;SDS011;2713;42.680;23.310;2023-02-11T03:52:49;17.42;;;10.43;;
5379;SDS011;2713;42.680;23.310;2023-02-11T03:55:18;14.00;;;10.18;;
5379;SDS011;2713;42.680;23.310;2023-02-11T03:57:50;14.23;;;9.90;;
5379;SDS011;2713;42.680;23.310;2023-02-11T04:00:17;16.30;;;10.15;;
5379;SDS011;2713;42.680;23.310;2023-02-11T04:02:44;14.85;;;10.85;;
5379;SDS011;2713;42.680;23.310;2023-02-11T04:05:13;15.07;;;11.07;;
5379;SDS011;2713;42.680;23.310;2023-02-11T04:07:42;16.20;;;11.63;;
5379;SDS011;2713;42.680;23.310;2023-02-11T04:10:10;17.98;;;11.40;;
5379;SDS011;2713;42.680;23.310;2023-02-11T04:12:37;16.52;;;10.73;;
5379;SDS011;2713;42.680;23.310;2023-02-11T04:15:05;15.63;;;10.85;;
5379;SDS011;2713;42.680;23.310;2023-02-11T04:17:32;17.27;;;10.93;;
5379;SDS011;2713;42.680;23.310;2023-02-11T04:19:59;17.90;;;11.05;;
5379;SDS011;2713;42.680;23.310;2023-02-11T04:22:26;16.35;;;11.20;;
5379;SDS011;2713;42.680;23.310;2023-02-11T04:24:54;14.27;;;10.75;;
5379;SDS011;2713;42.680;23.310;2023-02-11T04:27:21;18.00;;;11.57;;
5379;SDS011;2713;42.680;23.310;2023-02-11T04:29:48;17.92;;;11.10;;
5379;SDS011;2713;42.680;23.310;2023-02-11T04:32:15;15.00;;;11.00;;
5379;SDS011;2713;42.680;23.310;2023-02-11T04:34:41;15.80;;;11.32;;
5379;SDS011;2713;42.680;23.310;2023-02-11T04:37:08;19.67;;;10.95;;
5379;SDS011;2713;42.680;23.310;2023-02-11T04:39:35;16.73;;;11.30;;
5379;SDS011;2713;42.680;23.310;2023-02-11T04:42:03;19.33;;;12.02;;
5379;SDS011;2713;42.680;23.310;2023-02-11T04:44:30;17.25;;;11.18;;
5379;SDS011;2713;42.680;23.310;2023-02-11T04:46:57;17.38;;;11.10;;
5379;SDS011;2713;42.680;23.310;2023-02-11T04:49:24;16.42;;;10.35;;
5379;SDS011;2713;42.680;23.310;2023-02-11T04:51:51;19.05;;;12.13;;
5379;SDS011;2713;42.680;23.310;2023-02-11T04:54:18;25.80;;;11.10;;
5379;SDS011;2713;42.680;23.310;2023-02-11T04:56:46;15.18;;;10.80;;
5379;SDS011;2713;42.680;23.310;2023-02-11T04:59:15;17.45;;;10.80;;
5379;SDS011;2713;42.680;23.310;2023-02-11T05:01:42;16.02;;;10.52;;
5379;SDS011;2713;42.680;23.310;2023-02-11T05:04:08;17.63;;;11.05;;
5379;SDS011;2713;42.680;23.310;2023-02-11T05:06:36;15.02;;;11.43;;
5379;SDS011;2713;42.680;23.310;2023-02-11T05:09:03;16.08;;;10.80;;
5379;SDS011;2713;42.680;23.310;2023-02-11T05:11:30;17.35;;;11.20;;
5379;SDS011;2713;42.680;23.310;2023-02-11T05:13:57;19.15;;;12.15;;
5379;SDS011;2713;42.680;23.310;2023-02-11T05:16:25;18.55;;;12.27;;
5379;SDS011;2713;42.680;23.310;2023-02-11T05:18:52;20.23;;;12.00;;
5379;SDS011;2713;42.680;23.310;2023-02-11T05:21:19;19.85;;;13.13;;
5379;SDS011;2713;42.680;23.310;2023-02-11T05:23:46;19.10;;;12.30;;
5379;SDS011;2713;42.680;23.310;2023-02-11T05:26:13;16.88;;;11.55;;
5379;SDS011;2713;42.680;23.310;2023-02-11T05:28:40;21.42;;;13.52;;
5379;SDS011;2713;42.680;23.310;2023-02-11T05:31:08;22.98;;;12.95;;
5379;SDS011;2713;42.680;23.310;2023-02-11T05:33:36;19.58;;;12.23;;
5379;SDS011;2713;42.680;23.310;2023-02-11T05:36:04;21.35;;;12.20;;
5379;SDS011;2713;42.680;23.310;2023-02-11T05:38:33;19.98;;;11.55;;
5379;SDS011;2713;42.680;23.310;2023-02-11T05:41:00;22.60;;;13.18;;
5379;SDS011;2713;42.680;23.310;2023-02-11T05:43:28;19.13;;;12.05;;
5379;SDS011;2713;42.680;23.310;2023-02-11T05:45:55;21.52;;;12.82;;
5379;SDS011;2713;42.680;23.310;2023-02-11T05:48:22;20.35;;;12.90;;
5379;SDS011;2713;42.680;23.310;2023-02-11T05:50:50;24.08;;;14.65;;
5379;SDS011;2713;42.680;23.310;2023-02-11T05:53:17;23.15;;;14.35;;
5379;SDS011;2713;42.680;23.310;2023-02-11T05:55:44;19.90;;;13.13;;
5379;SDS011;2713;42.680;23.310;2023-02-11T05:58:11;21.65;;;13.88;;
5379;SDS011;2713;42.680;23.310;2023-02-11T06:00:37;24.88;;;14.30;;
5379;SDS011;2713;42.680;23.310;2023-02-11T06:03:04;20.70;;;14.18;;
5379;SDS011;2713;42.680;23.310;2023-02-11T06:05:32;20.83;;;13.80;;
5379;SDS011;2713;42.680;23.310;2023-02-11T06:08:00;19.80;;;13.77;;
5379;SDS011;2713;42.680;23.310;2023-02-11T06:10:27;23.88;;;14.25;;
5379;SDS011;2713;42.680;23.310;2023-02-11T06:12:54;22.25;;;14.65;;
5379;SDS011;2713;42.680;23.310;2023-02-11T06:15:21;21.30;;;14.00;;
5379;SDS011;2713;42.680;23.310;2023-02-11T06:17:47;22.33;;;14.30;;
5379;SDS011;2713;42.680;23.310;2023-02-11T06:20:14;21.50;;;13.27;;
5379;SDS011;2713;42.680;23.310;2023-02-11T06:22:41;22.25;;;14.35;;
5379;SDS011;2713;42.680;23.310;2023-02-11T06:25:09;23.48;;;14.02;;
5379;SDS011;2713;42.680;23.310;2023-02-11T06:27:36;22.85;;;14.10;;
5379;SDS011;2713;42.680;23.310;2023-02-11T06:30:03;20.65;;;14.82;;
5379;SDS011;2713;42.680;23.310;2023-02-11T06:32:32;28.98;;;14.38;;
5379;SDS011;2713;42.680;23.310;2023-02-11T06:34:59;20.75;;;14.77;;
5379;SDS011;2713;42.680;23.310;2023-02-11T06:37:25;28.45;;;14.82;;
5379;SDS011;2713;42.680;23.310;2023-02-11T06:39:52;26.23;;;16.05;;
5379;SDS011;2713;42.680;23.310;2023-02-11T06:42:21;23.50;;;15.10;;
5379;SDS011;2713;42.680;23.310;2023-02-11T06:44:48;26.20;;;18.50;;
5379;SDS011;2713;42.680;23.310;2023-02-11T06:47:14;24.05;;;15.85;;
5379;SDS011;2713;42.680;23.310;2023-02-11T06:49:41;24.13;;;15.10;;
5379;SDS011;2713;42.680;23.310;2023-02-11T06:52:08;27.90;;;16.08;;
5379;SDS011;2713;42.680;23.310;2023-02-11T06:54:35;22.00;;;15.13;;
5379;SDS011;2713;42.680;23.310;2023-02-11T06:57:02;21.05;;;14.90;;
5379;SDS011;2713;42.680;23.310;2023-02-11T06:59:30;23.35;;;15.05;;
5379;SDS011;2713;42.680;23.310;2023-02-11T07:01:57;21.75;;;14.38;;
5379;SDS011;2713;42.680;23.310;2023-02-11T07:04:24;23.67;;;14.32;;
5379;SDS011;2713;42.680;23.310;2023-02-11T07:06:51;25.17;;;15.18;;
5379;SDS011;2713;42.680;23.310;2023-02-11T07:09:18;21.77;;;13.77;;
5379;SDS011;2713;42.680;23.310;2023-02-11T07:11:44;22.05;;;13.90;;
5379;SDS011;2713;42.680;23.310;2023-02-11T07:14:11;26.90;;;15.68;;
5379;SDS011;2713;42.680;23.310;2023-02-11T07:16:39;20.88;;;14.55;;
5379;SDS011;2713;42.680;23.310;2023-02-11T07:19:06;24.30;;;15.38;;
5379;SDS011;2713;42.680;23.310;2023-02-11T07:21:33;22.65;;;15.60;;
5379;SDS011;2713;42.680;23.310;2023-02-11T07:24:00;23.50;;;15.27;;
5379;SDS011;2713;42.680;23.310;2023-02-11T07:26:27;27.65;;;16.08;;
5379;SDS011;2713;42.680;23.310;2023-02-11T07:28:54;28.23;;;15.60;;
5379;SDS011;2713;42.680;23.310;2023-02-11T07:31:21;24.02;;;16.73;;
5379;SDS011;2713;42.680;23.310;2023-02-11T07:33:51;24.13;;;15.48;;
5379;SDS011;2713;42.680;23.310;2023-02-11T07:36:19;29.55;;;16.70;;
5379;SDS011;2713;42.680;23.310;2023-02-11T07:38:47;28.25;;;17.70;;
5379;SDS011;2713;42.680;23.310;2023-02-11T07:41:15;26.52;;;15.90;;
5379;SDS011;2713;42.680;23.310;2023-02-11T07:43:43;23.88;;;15.10;;
5379;SDS011;2713;42.680;23.310;2023-02-11T07:46:11;27.65;;;15.95;;
5379;SDS011;2713;42.680;23.310;2023-02-11T07:48:39;30.35;;;16.77;;
5379;SDS011;2713;42.680;23.310;2023-02-11T07:51:08;27.77;;;17.23;;
5379;SDS011;2713;42.680;23.310;2023-02-11T07:53:36;28.45;;;17.23;;
5379;SDS011;2713;42.680;23.310;2023-02-11T07:56:04;24.15;;;15.73;;
5379;SDS011;2713;42.680;23.310;2023-02-11T07:58:32;23.27;;;15.13;;
5379;SDS011;2713;42.680;23.310;2023-02-11T08:01:00;22.52;;;14.70;;
5379;SDS011;2713;42.680;23.310;2023-02-11T08:03:28;23.05;;;15.05;;
5379;SDS011;2713;42.680;23.310;2023-02-11T08:05:55;23.15;;;15.63;;
5379;SDS011;2713;42.680;23.310;2023-02-11T08:08:24;23.20;;;15.98;;
5379;SDS011;2713;42.680;23.310;2023-02-11T08:10:52;22.48;;;15.15;;
5379;SDS011;2713;42.680;23.310;2023-02-11T08:13:19;21.98;;;14.75;;
5379;SDS011;2713;42.680;23.310;2023-02-11T08:15:45;26.20;;;16.05;;
5379;SDS011;2713;42.680;23.310;2023-02-11T08:18:12;28.85;;;17.50;;
5379;SDS011;2713;42.680;23.310;2023-02-11T08:20:39;26.48;;;15.63;;
5379;SDS011;2713;42.680;23.310;2023-02-11T08:23:06;24.60;;;15.18;;
5379;SDS011;2713;42.680;23.310;2023-02-11T08:25:34;25.58;;;15.45;;
5379;SDS011;2713;42.680;23.310;2023-02-11T08:28:01;24.98;;;15.40;;
5379;SDS011;2713;42.680;23.310;2023-02-11T08:30:28;27.15;;;16.40;;
5379;SDS011;2713;42.680;23.310;2023-02-11T08:32:54;26.05;;;16.80;;
5379;SDS011;2713;42.680;23.310;2023-02-11T08:35:21;28.38;;;17.35;;
5379;SDS011;2713;42.680;23.310;2023-02-11T08:37:50;29.70;;;17.13;;
5379;SDS011;2713;42.680;23.310;2023-02-11T08:40:17;28.33;;;17.05;;
5379;SDS011;2713;42.680;23.310;2023-02-11T08:42:45;24.63;;;16.27;;
5379;SDS011;2713;42.680;23.310;2023-02-11T08:45:12;29.20;;;15.90;;
5379;SDS011;2713;42.680;23.310;2023-02-11T08:47:39;25.17;;;15.40;;
5379;SDS011;2713;42.680;23.310;2023-02-11T08:50:05;21.35;;;14.48;;
5379;SDS011;2713;42.680;23.310;2023-02-11T08:52:32;21.80;;;14.75;;
5379;SDS011;2713;42.680;23.310;2023-02-11T08:54:59;25.38;;;16.65;;
5379;SDS011;2713;42.680;23.310;2023-02-11T08:57:26;22.58;;;14.52;;
5379;SDS011;2713;42.680;23.310;2023-02-11T08:59:54;24.00;;;14.25;;
5379;SDS011;2713;42.680;23.310;2023-02-11T09:02:21;26.58;;;14.98;;
5379;SDS011;2713;42.680;23.310;2023-02-11T09:04:48;22.20;;;14.55;;
5379;SDS011;2713;42.680;23.310;2023-02-11T09:07:14;25.52;;;16.40;;
5379;SDS011;2713;42.680;23.310;2023-02-11T09:09:41;23.73;;;15.60;;
5379;SDS011;2713;42.680;23.310;2023-02-11T09:12:08;24.88;;;12.88;;
5379;SDS011;2713;42.680;23.310;2023-02-11T09:14:35;29.73;;;13.20;;
5379;SDS011;2713;42.680;23.310;2023-02-11T09:17:03;20.33;;;13.88;;
5379;SDS011;2713;42.680;23.310;2023-02-11T09:19:30;23.20;;;14.30;;
5379;SDS011;2713;42.680;23.310;2023-02-11T09:21:57;22.13;;;13.88;;
5379;SDS011;2713;42.680;23.310;2023-02-11T09:24:24;18.08;;;12.05;;
5379;SDS011;2713;42.680;23.310;2023-02-11T09:26:51;21.05;;;12.85;;
5379;SDS011;2713;42.680;23.310;2023-02-11T09:29:18;23.52;;;13.25;;
5379;SDS011;2713;42.680;23.310;2023-02-11T09:31:45;20.67;;;12.20;;
5379;SDS011;2713;42.680;23.310;2023-02-11T09:34:13;20.00;;;12.68;;
5379;SDS011;2713;42.680;23.310;2023-02-11T09:36:40;17.83;;;11.80;;
5379;SDS011;2713;42.680;23.310;2023-02-11T09:39:08;19.75;;;12.60;;
5379;SDS011;2713;42.680;23.310;2023-02-11T09:41:40;19.17;;;11.88;;
5379;SDS011;2713;42.680;23.310;2023-02-11T09:44:20;16.85;;;13.05;;
5379;SDS011;2713;42.680;23.310;2023-02-11T09:46:53;26.73;;;14.10;;
5379;SDS011;2713;42.680;23.310;2023-02-11T09:49:24;20.83;;;11.90;;
5379;SDS011;2713;42.680;23.310;2023-02-11T09:52:11;17.60;;;11.85;;
5379;SDS011;2713;42.680;23.310;2023-02-11T09:54:48;18.27;;;11.95;;
5379;SDS011;2713;42.680;23.310;2023-02-11T09:57:20;18.90;;;12.60;;
5379;SDS011;2713;42.680;23.310;2023-02-11T09:59:49;20.38;;;12.85;;
5379;SDS011;2713;42.680;23.310;2023-02-11T10:02:19;16.17;;;11.73;;
5379;SDS011;2713;42.680;23.310;2023-02-11T10:05:04;17.20;;;12.38;;
5379;SDS011;2713;42.680;23.310;2023-02-11T10:07:44;21.05;;;12.55;;
5379;SDS011;2713;42.680;23.310;2023-02-11T10:10:20;19.50;;;12.40;;
5379;SDS011;2713;42.680;23.310;2023-02-11T10:13:04;15.85;;;10.52;;
5379;SDS011;2713;42.680;23.310;2023-02-11T10:15:49;15.77;;;10.75;;
5379;SDS011;2713;42.680;23.310;2023-02-11T10:18:32;16.25;;;10.30;;
5379;SDS011;2713;42.680;23.310;2023-02-11T10:21:14;17.25;;;12.05;;
5379;SDS011;2713;42.680;23.310;2023-02-11T10:23:51;16.25;;;10.90;;
5379;SDS011;2713;42.680;23.310;2023-02-11T10:26:21;25.08;;;16.05;;
5379;SDS011;2713;42.680;23.310;2023-02-11T10:28:49;21.83;;;12.80;;
5379;SDS011;2713;42.680;23.310;2023-02-11T10:31:20;19.23;;;10.70;;
5379;SDS011;2713;42.680;23.310;2023-02-11T10:33:52;16.30;;;10.15;;
5379;SDS011;2713;42.680;23.310;2023-02-11T10:36:26;16.23;;;11.02;;
5379;SDS011;2713;42.680;23.310;2023-02-11T10:38:55;31.95;;;19.90;;
5379;SDS011;2713;42.680;23.310;2023-02-11T10:41:25;13.93;;;9.00;;
5379;SDS011;2713;42.680;23.310;2023-02-11T10:43:57;13.45;;;9.20;;
5379;SDS011;2713;42.680;23.310;2023-02-11T10:46:27;15.50;;;10.23;;
5379;SDS011;2713;42.680;23.310;2023-02-11T10:48:57;13.95;;;8.93;;
5379;SDS011;2713;42.680;23.310;2023-02-11T10:51:26;17.65;;;10.30;;
5379;SDS011;2713;42.680;23.310;2023-02-11T10:54:08;12.05;;;8.80;;
5379;SDS011;2713;42.680;23.310;2023-02-11T10:56:39;15.25;;;8.98;;
5379;SDS011;2713;42.680;23.310;2023-02-11T10:59:13;14.98;;;9.45;;
5379;SDS011;2713;42.680;23.310;2023-02-11T11:01:47;17.35;;;12.27;;
5379;SDS011;2713;42.680;23.310;2023-02-11T11:04:36;20.35;;;11.00;;
5379;SDS011;2713;42.680;23.310;2023-02-11T11:07:11;12.77;;;9.48;;
5379;SDS011;2713;42.680;23.310;2023-02-11T11:09:45;15.20;;;10.70;;
5379;SDS011;2713;42.680;23.310;2023-02-11T11:12:32;14.85;;;10.02;;
5379;SDS011;2713;42.680;23.310;2023-02-11T11:15:01;22.73;;;10.82;;
5379;SDS011;2713;42.680;23.310;2023-02-11T11:17:42;15.13;;;9.75;;
5379;SDS011;2713;42.680;23.310;2023-02-11T11:20:13;12.35;;;9.40;;
5379;SDS011;2713;42.680;23.310;2023-02-11T11:22:50;19.60;;;12.82;;
5379;SDS011;2713;42.680;23.310;2023-02-11T11:25:23;39.33;;;21.98;;
5379;SDS011;2713;42.680;23.310;2023-02-11T11:27:53;14.77;;;10.35;;
5379;SDS011;2713;42.680;23.310;2023-02-11T11:30:22;14.90;;;10.02;;
5379;SDS011;2713;42.680;23.310;2023-02-11T11:32:52;14.13;;;9.88;;
5379;SDS011;2713;42.680;23.310;2023-02-11T11:35:22;16.45;;;11.20;;
5379;SDS011;2713;42.680;23.310;2023-02-11T11:37:56;14.52;;;9.90;;
5379;SDS011;2713;42.680;23.310;2023-02-11T11:40:26;10.88;;;8.57;;
5379;SDS011;2713;42.680;23.310;2023-02-11T11:43:01;16.08;;;9.52;;
5379;SDS011;2713;42.680;23.310;2023-02-11T11:45:30;10.77;;;8.23;;
5379;SDS011;2713;42.680;23.310;2023-02-11T11:47:57;11.63;;;8.20;;
5379;SDS011;2713;42.680;23.310;2023-02-11T11:50:29;13.00;;;8.95;;
5379;SDS011;2713;42.680;23.310;2023-02-11T11:53:03;12.30;;;7.72;;
5379;SDS011;2713;42.680;23.310;2023-02-11T11:55:34;10.73;;;7.50;;
5379;SDS011;2713;42.680;23.310;2023-02-11T11:58:08;14.02;;;8.27;;
5379;SDS011;2713;42.680;23.310;2023-02-11T12:00:40;11.07;;;7.60;;
5379;SDS011;2713;42.680;23.310;2023-02-11T12:03:29;12.20;;;8.20;;
5379;SDS011;2713;42.680;23.310;2023-02-11T12:06:17;11.40;;;7.95;;
5379;SDS011;2713;42.680;23.310;2023-02-11T12:09:00;13.00;;;8.43;;
5379;SDS011;2713;42.680;23.310;2023-02-11T12:11:37;12.77;;;8.60;;
5379;SDS011;2713;42.680;23.310;2023-02-11T12:14:20;12.27;;;8.45;;
5379;SDS011;2713;42.680;23.310;2023-02-11T12:16:56;14.63;;;9.23;;
5379;SDS011;2713;42.680;23.310;2023-02-11T12:19:35;12.25;;;7.97;;
5379;SDS011;2713;42.680;23.310;2023-02-11T12:22:23;12.05;;;8.35;;
5379;SDS011;2713;42.680;23.310;2023-02-11T12:25:04;10.15;;;8.30;;
5379;SDS011;2713;42.680;23.310;2023-02-11T12:27:46;20.60;;;8.50;;
5379;SDS011;2713;42.680;23.310;2023-02-11T12:30:26;11.32;;;7.60;;
5379;SDS011;2713;42.680;23.310;2023-02-11T12:33:03;11.20;;;7.93;;
5379;SDS011;2713;42.680;23.310;2023-02-11T12:35:40;10.95;;;8.10;;
5379;SDS011;2713;42.680;23.310;2023-02-11T12:38:24;13.98;;;7.93;;
5379;SDS011;2713;42.680;23.310;2023-02-11T12:41:11;12.00;;;7.93;;
5379;SDS011;2713;42.680;23.310;2023-02-11T12:44:09;14.77;;;10.80;;
5379;SDS011;2713;42.680;23.310;2023-02-11T12:46:44;14.27;;;8.77;;
5379;SDS011;2713;42.680;23.310;2023-02-11T12:49:27;12.57;;;8.23;;
5379;SDS011;2713;42.680;23.310;2023-02-11T12:52:07;14.63;;;9.20;;
5379;SDS011;2713;42.680;23.310;2023-02-11T12:54:42;15.90;;;11.27;;
5379;SDS011;2713;42.680;23.310;2023-02-11T12:57:16;14.43;;;10.05;;
5379;SDS011;2713;42.680;23.310;2023-02-11T12:59:47;12.83;;;9.03;;
5379;SDS011;2713;42.680;23.310;2023-02-11T13:02:23;12.20;;;8.27;;
5379;SDS011;2713;42.680;23.310;2023-02-11T13:04:55;14.63;;;8.60;;
5379;SDS011;2713;42.680;23.310;2023-02-11T13:07:27;19.10;;;9.40;;
5379;SDS011;2713;42.680;23.310;2023-02-11T13:10:00;12.90;;;8.68;;
5379;SDS011;2713;42.680;23.310;2023-02-11T13:12:33;10.37;;;8.13;;
5379;SDS011;2713;42.680;23.310;2023-02-11T13:15:19;12.43;;;8.50;;
5379;SDS011;2713;42.680;23.310;2023-02-11T13:17:52;11.47;;;7.73;;
5379;SDS011;2713;42.680;23.310;2023-02-11T13:20:34;12.38;;;8.30;;
5379;SDS011;2713;42.680;23.310;2023-02-11T13:23:10;12.05;;;8.80;;
5379;SDS011;2713;42.680;23.310;2023-02-11T13:25:46;9.73;;;7.68;;
5379;SDS011;2713;42.680;23.310;2023-02-11T13:28:22;11.63;;;8.30;;
5379;SDS011;2713;42.680;23.310;2023-02-11T13:30:58;10.60;;;7.95;;
5379;SDS011;2713;42.680;23.310;2023-02-11T13:33:30;11.43;;;8.30;;
5379;SDS011;2713;42.680;23.310;2023-02-11T13:36:18;14.68;;;8.38;;
5379;SDS011;2713;42.680;23.310;2023-02-11T13:38:55;11.48;;;8.60;;
5379;SDS011;2713;42.680;23.310;2023-02-11T13:41:28;12.77;;;8.77;;
5379;SDS011;2713;42.680;23.310;2023-02-11T13:44:03;12.98;;;8.43;;
5379;SDS011;2713;42.680;23.310;2023-02-11T13:46:56;9.15;;;7.18;;
5379;SDS011;2713;42.680;23.310;2023-02-11T13:49:30;10.48;;;7.45;;
5379;SDS011;2713;42.680;23.310;2023-02-11T13:51:59;11.55;;;7.35;;
5379;SDS011;2713;42.680;23.310;2023-02-11T13:54:29;10.90;;;7.67;;
5379;SDS011;2713;42.680;23.310;2023-02-11T13:59:53;10.90;;;8.10;;
5379;SDS011;2713;42.680;23.310;2023-02-11T14:02:23;10.68;;;8.13;;
5379;SDS011;2713;42.680;23.310;2023-02-11T14:08:19;10.07;;;7.45;;
5379;SDS011;2713;42.680;23.310;2023-02-11T14:11:07;12.97;;;8.10;;
5379;SDS011;2713;42.680;23.310;2023-02-11T14:16:51;11.25;;;8.15;;
5379;SDS011;2713;42.680;23.310;2023-02-11T14:19:47;12.67;;;8.43;;
5379;SDS011;2713;42.680;23.310;2023-02-11T14:22:15;13.30;;;8.60;;
5379;SDS011;2713;42.680;23.310;2023-02-11T14:24:46;13.32;;;9.43;;
5379;SDS011;2713;42.680;23.310;2023-02-11T14:27:17;11.88;;;8.50;;
5379;SDS011;2713;42.680;23.310;2023-02-11T14:29:52;16.13;;;8.73;;
5379;SDS011;2713;42.680;23.310;2023-02-11T14:32:36;11.05;;;8.90;;
5379;SDS011;2713;42.680;23.310;2023-02-11T14:35:13;14.20;;;9.52;;
5379;SDS011;2713;42.680;23.310;2023-02-11T14:37:49;9.85;;;8.35;;
5379;SDS011;2713;42.680;23.310;2023-02-11T14:40:26;11.02;;;8.60;;
5379;SDS011;2713;42.680;23.310;2023-02-11T14:42:59;12.90;;;8.98;;
5379;SDS011;2713;42.680;23.310;2023-02-11T14:45:36;14.57;;;8.85;;
5379;SDS011;2713;42.680;23.310;2023-02-11T14:48:06;13.13;;;9.55;;
5379;SDS011;2713;42.680;23.310;2023-02-11T14:50:40;12.70;;;9.80;;
5379;SDS011;2713;42.680;23.310;2023-02-11T14:53:12;12.52;;;9.15;;
5379;SDS011;2713;42.680;23.310;2023-02-11T14:55:42;14.40;;;9.75;;
5379;SDS011;2713;42.680;23.310;2023-02-11T14:58:13;11.80;;;9.10;;
5379;SDS011;2713;42.680;23.310;2023-02-11T15:00:52;14.38;;;9.38;;
5379;SDS011;2713;42.680;23.310;2023-02-11T15:03:26;12.95;;;9.65;;
5379;SDS011;2713;42.680;23.310;2023-02-11T15:05:59;16.30;;;10.10;;
5379;SDS011;2713;42.680;23.310;2023-02-11T15:08:28;13.05;;;9.02;;
5379;SDS011;2713;42.680;23.310;2023-02-11T15:10:56;12.20;;;8.60;;
5379;SDS011;2713;42.680;23.310;2023-02-11T15:13:25;12.20;;;8.52;;
5379;SDS011;2713;42.680;23.310;2023-02-11T15:15:57;11.15;;;8.82;;
5379;SDS011;2713;42.680;23.310;2023-02-11T15:18:31;13.13;;;9.50;;
5379;SDS011;2713;42.680;23.310;2023-02-11T15:21:02;13.23;;;9.60;;